sensor_id;sensor_type;location;lat;lon;timestamp;P1;durP1;ratioP1;P2;durP2;ratioP2
40501;SDS011;29631;49.168;9.848;2023-02-13T00:00:03;7.20;;;6.50;;
40501;SDS011;29631;49.168;9.848;2023-02-13T00:02:32;7.15;;;6.65;;
40501;SDS011;29631;49.168;9.848;2023-02-13T00:04:58;7.47;;;6.88;;
40501;SDS011;29631;49.168;9.848;2023-02-13T00:07:24;6.97;;;6.43;;
40501;SDS011;29631;49.168;9.848;2023-02-13T00:09:49;6.90;;;6.40;;
40501;SDS011;29631;49.168;9.848;2023-02-13T00:12:15;6.80;;;6.20;;
40501;SDS011;29631;49.168;9.848;2023-02-13T00:14:41;6.65;;;6.15;;
40501;SDS011;29631;49.168;9.848;2023-02-13T00:17:06;6.55;;;5.93;;
40501;SDS011;29631;49.168;9.848;2023-02-13T00:19:32;6.65;;;6.15;;
40501;SDS011;29631;49.168;9.848;2023-02-13T00:21:58;6.63;;;6.18;;
40501;SDS011;29631;49.168;9.848;2023-02-13T00:24:24;7.03;;;6.43;;
40501;SDS011;29631;49.168;9.848;2023-02-13T00:26:50;6.82;;;6.05;;
40501;SDS011;29631;49.168;9.848;2023-02-13T00:29:15;6.57;;;6.07;;
40501;SDS011;29631;49.168;9.848;2023-02-13T00:31:41;6.85;;;6.25;;
40501;SDS011;29631;49.168;9.848;2023-02-13T00:34:07;6.38;;;5.88;;
40501;SDS011;29631;49.168;9.848;2023-02-13T00:36:33;7.40;;;5.93;;
40501;SDS011;29631;49.168;9.848;2023-02-13T00:38:59;7.25;;;6.13;;
40501;SDS011;29631;49.168;9.848;2023-02-13T00:41:24;6.47;;;5.40;;
40501;SDS011;29631;49.168;9.848;2023-02-13T00:43:50;6.18;;;5.78;;
40501;SDS011;29631;49.168;9.848;2023-02-13T00:46:16;6.00;;;5.60;;
40501;SDS011;29631;49.168;9.848;2023-02-13T00:48:42;6.10;;;5.60;;
40501;SDS011;29631;49.168;9.848;2023-02-13T00:51:09;5.97;;;5.57;;
40501;SDS011;29631;49.168;9.848;2023-02-13T00:53:35;5.75;;;5.25;;
40501;SDS011;29631;49.168;9.848;2023-02-13T00:56:02;6.25;;;5.75;;
40501;SDS011;29631;49.168;9.848;2023-02-13T00:58:30;5.63;;;5.22;;
40501;SDS011;29631;49.168;9.848;2023-02-13T01:00:56;5.55;;;5.15;;
40501;SDS011;29631;49.168;9.848;2023-02-13T01:03:22;6.22;;;5.82;;
40501;SDS011;29631;49.168;9.848;2023-02-13T01:05:48;5.50;;;5.10;;
40501;SDS011;29631;49.168;9.848;2023-02-13T01:08:15;5.78;;;5.38;;
40501;SDS011;29631;49.168;9.848;2023-02-13T01:10:43;5.85;;;5.35;;
40501;SDS011;29631;49.168;9.848;2023-02-13T01:13:11;5.50;;;5.10;;
40501;SDS011;29631;49.168;9.848;2023-02-13T01:15:38;5.47;;;4.97;;
40501;SDS011;29631;49.168;9.848;2023-02-13T01:18:04;5.70;;;5.30;;
40501;SDS011;29631;49.168;9.848;2023-02-13T01:20:30;5.97;;;5.57;;
40501;SDS011;29631;49.168;9.848;2023-02-13T01:22:56;5.80;;;5.40;;
40501;SDS011;29631;49.168;9.848;2023-02-13T01:25:22;5.90;;;5.50;;
40501;SDS011;29631;49.168;9.848;2023-02-13T01:27:48;5.38;;;5.03;;
40501;SDS011;29631;49.168;9.848;2023-02-13T01:30:15;5.75;;;5.35;;
40501;SDS011;29631;49.168;9.848;2023-02-13T01:32:43;5.93;;;5.53;;
40501;SDS011;29631;49.168;9.848;2023-02-13T01:35:11;5.43;;;5.03;;
40501;SDS011;29631;49.168;9.848;2023-02-13T01:37:38;5.80;;;5.30;;
40501;SDS011;29631;49.168;9.848;2023-02-13T01:40:04;6.07;;;5.65;;
40501;SDS011;29631;49.168;9.848;2023-02-13T01:42:33;6.30;;;5.80;;
40501;SDS011;29631;49.168;9.848;2023-02-13T01:45:00;5.78;;;5.30;;
40501;SDS011;29631;49.168;9.848;2023-02-13T01:47:48;6.05;;;5.55;;
40501;SDS011;29631;49.168;9.848;2023-02-13T01:50:57;6.65;;;6.15;;
40501;SDS011;29631;49.168;9.848;2023-02-13T01:53:53;6.05;;;5.55;;
40501;SDS011;29631;49.168;9.848;2023-02-13T01:56:33;5.97;;;5.47;;
40501;SDS011;29631;49.168;9.848;2023-02-13T01:59:06;6.93;;;6.32;;
40501;SDS011;29631;49.168;9.848;2023-02-13T02:01:39;6.70;;;6.20;;
40501;SDS011;29631;49.168;9.848;2023-02-13T02:04:07;6.90;;;6.30;;
40501;SDS011;29631;49.168;9.848;2023-02-13T02:06:51;7.10;;;6.47;;
40501;SDS011;29631;49.168;9.848;2023-02-13T02:09:24;6.65;;;6.10;;
40501;SDS011;29631;49.168;9.848;2023-02-13T02:12:10;7.60;;;6.97;;
40501;SDS011;29631;49.168;9.848;2023-02-13T02:15:04;7.65;;;6.95;;
40501;SDS011;29631;49.168;9.848;2023-02-13T02:17:31;7.68;;;6.97;;
40501;SDS011;29631;49.168;9.848;2023-02-13T02:23:01;7.47;;;6.78;;
40501;SDS011;29631;49.168;9.848;2023-02-13T02:32:09;8.57;;;7.68;;
40501;SDS011;29631;49.168;9.848;2023-02-13T02:38:07;7.72;;;6.95;;
40501;SDS011;29631;49.168;9.848;2023-02-13T02:44:05;8.68;;;7.75;;
40501;SDS011;29631;49.168;9.848;2023-02-13T02:47:39;7.78;;;7.07;;
40501;SDS011;29631;49.168;9.848;2023-02-13T02:53:41;8.02;;;7.22;;
40501;SDS011;29631;49.168;9.848;2023-02-13T02:56:35;8.43;;;7.63;;
40501;SDS011;29631;49.168;9.848;2023-02-13T02:59:11;8.73;;;7.85;;
40501;SDS011;29631;49.168;9.848;2023-02-13T03:02:00;8.80;;;7.90;;
40501;SDS011;29631;49.168;9.848;2023-02-13T03:04:47;8.45;;;7.65;;
40501;SDS011;29631;49.168;9.848;2023-02-13T03:07:36;8.70;;;7.90;;
40501;SDS011;29631;49.168;9.848;2023-02-13T03:10:05;8.50;;;7.57;;
40501;SDS011;29631;49.168;9.848;2023-02-13T03:13:00;7.95;;;7.25;;
40501;SDS011;29631;49.168;9.848;2023-02-13T03:15:45;8.70;;;7.90;;
40501;SDS011;29631;49.168;9.848;2023-02-13T03:18:34;8.45;;;7.70;;
40501;SDS011;29631;49.168;9.848;2023-02-13T03:27:54;8.63;;;7.82;;
40501;SDS011;29631;49.168;9.848;2023-02-13T03:36:36;11.82;;;9.38;;
40501;SDS011;29631;49.168;9.848;2023-02-13T03:39:51;9.27;;;8.38;;
40501;SDS011;29631;49.168;9.848;2023-02-13T03:45:26;9.25;;;8.32;;
40501;SDS011;29631;49.168;9.848;2023-02-13T03:48:15;7.60;;;6.97;;
40501;SDS011;29631;49.168;9.848;2023-02-13T03:51:11;8.00;;;7.30;;
40501;SDS011;29631;49.168;9.848;2023-02-13T03:54:00;8.25;;;7.55;;
40501;SDS011;29631;49.168;9.848;2023-02-13T03:56:39;8.70;;;7.90;;
40501;SDS011;29631;49.168;9.848;2023-02-13T03:59:28;8.65;;;7.85;;
40501;SDS011;29631;49.168;9.848;2023-02-13T04:02:02;8.32;;;7.53;;
40501;SDS011;29631;49.168;9.848;2023-02-13T04:04:56;8.38;;;7.65;;
40501;SDS011;29631;49.168;9.848;2023-02-13T04:07:34;8.40;;;7.63;;
40501;SDS011;29631;49.168;9.848;2023-02-13T04:10:03;8.38;;;7.53;;
40501;SDS011;29631;49.168;9.848;2023-02-13T04:12:36;8.90;;;8.02;;
40501;SDS011;29631;49.168;9.848;2023-02-13T04:17:42;9.18;;;8.27;;
40501;SDS011;29631;49.168;9.848;2023-02-13T04:20:17;9.77;;;8.77;;
40501;SDS011;29631;49.168;9.848;2023-02-13T04:22:44;8.40;;;7.57;;
40501;SDS011;29631;49.168;9.848;2023-02-13T04:25:12;9.35;;;8.48;;
40501;SDS011;29631;49.168;9.848;2023-02-13T04:27:40;9.68;;;8.77;;
40501;SDS011;29631;49.168;9.848;2023-02-13T04:30:07;9.10;;;8.30;;
40501;SDS011;29631;49.168;9.848;2023-02-13T04:32:34;9.35;;;8.48;;
40501;SDS011;29631;49.168;9.848;2023-02-13T04:35:00;8.43;;;7.72;;
40501;SDS011;29631;49.168;9.848;2023-02-13T04:37:25;9.75;;;8.02;;
40501;SDS011;29631;49.168;9.848;2023-02-13T04:39:51;8.55;;;7.75;;
40501;SDS011;29631;49.168;9.848;2023-02-13T04:42:17;8.57;;;7.78;;
40501;SDS011;29631;49.168;9.848;2023-02-13T04:44:42;8.90;;;8.00;;
40501;SDS011;29631;49.168;9.848;2023-02-13T04:47:08;8.90;;;8.10;;
40501;SDS011;29631;49.168;9.848;2023-02-13T04:49:34;9.07;;;8.27;;
40501;SDS011;29631;49.168;9.848;2023-02-13T04:51:59;9.02;;;8.23;;
40501;SDS011;29631;49.168;9.848;2023-02-13T04:54:25;8.55;;;7.72;;
40501;SDS011;29631;49.168;9.848;2023-02-13T04:56:51;8.75;;;7.95;;
40501;SDS011;29631;49.168;9.848;2023-02-13T04:59:16;10.13;;;8.43;;
40501;SDS011;29631;49.168;9.848;2023-02-13T05:01:42;9.15;;;8.25;;
40501;SDS011;29631;49.168;9.848;2023-02-13T05:04:08;9.35;;;8.45;;
40501;SDS011;29631;49.168;9.848;2023-02-13T05:06:35;9.13;;;8.23;;
40501;SDS011;29631;49.168;9.848;2023-02-13T05:09:02;9.35;;;8.45;;
40501;SDS011;29631;49.168;9.848;2023-02-13T05:11:28;9.38;;;8.40;;
40501;SDS011;29631;49.168;9.848;2023-02-13T05:13:53;9.25;;;8.35;;
40501;SDS011;29631;49.168;9.848;2023-02-13T05:16:19;9.95;;;8.05;;
40501;SDS011;29631;49.168;9.848;2023-02-13T05:18:45;9.05;;;8.15;;
40501;SDS011;29631;49.168;9.848;2023-02-13T05:21:11;8.93;;;8.13;;
40501;SDS011;29631;49.168;9.848;2023-02-13T05:23:55;9.13;;;8.23;;
40501;SDS011;29631;49.168;9.848;2023-02-13T05:26:20;8.60;;;7.80;;
40501;SDS011;29631;49.168;9.848;2023-02-13T05:28:46;8.77;;;7.95;;
40501;SDS011;29631;49.168;9.848;2023-02-13T05:31:30;8.40;;;7.60;;
40501;SDS011;29631;49.168;9.848;2023-02-13T05:33:55;9.50;;;8.60;;
40501;SDS011;29631;49.168;9.848;2023-02-13T05:36:21;8.18;;;7.47;;
40501;SDS011;29631;49.168;9.848;2023-02-13T05:38:47;9.10;;;8.20;;
40501;SDS011;29631;49.168;9.848;2023-02-13T05:41:12;10.20;;;9.07;;
40501;SDS011;29631;49.168;9.848;2023-02-13T05:43:38;9.02;;;8.20;;
40501;SDS011;29631;49.168;9.848;2023-02-13T05:46:05;9.18;;;8.27;;
40501;SDS011;29631;49.168;9.848;2023-02-13T05:48:33;9.75;;;8.80;;
40501;SDS011;29631;49.168;9.848;2023-02-13T05:50:59;9.02;;;8.20;;
40501;SDS011;29631;49.168;9.848;2023-02-13T05:53:25;8.95;;;8.07;;
40501;SDS011;29631;49.168;9.848;2023-02-13T05:55:50;9.23;;;8.32;;
40501;SDS011;29631;49.168;9.848;2023-02-13T05:58:17;8.70;;;7.82;;
40501;SDS011;29631;49.168;9.848;2023-02-13T06:00:44;8.70;;;7.88;;
40501;SDS011;29631;49.168;9.848;2023-02-13T06:03:10;9.23;;;8.32;;
40501;SDS011;29631;49.168;9.848;2023-02-13T06:05:36;9.25;;;8.35;;
40501;SDS011;29631;49.168;9.848;2023-02-13T06:08:01;8.85;;;8.02;;
40501;SDS011;29631;49.168;9.848;2023-02-13T06:10:27;8.98;;;8.10;;
40501;SDS011;29631;49.168;9.848;2023-02-13T06:12:53;9.23;;;8.02;;
40501;SDS011;29631;49.168;9.848;2023-02-13T06:15:19;9.30;;;8.40;;
40501;SDS011;29631;49.168;9.848;2023-02-13T06:17:45;9.48;;;8.57;;
40501;SDS011;29631;49.168;9.848;2023-02-13T06:20:10;15.23;;;8.18;;
40501;SDS011;29631;49.168;9.848;2023-02-13T06:22:36;8.85;;;7.95;;
40501;SDS011;29631;49.168;9.848;2023-02-13T06:25:02;9.48;;;7.93;;
40501;SDS011;29631;49.168;9.848;2023-02-13T06:27:28;9.05;;;8.18;;
40501;SDS011;29631;49.168;9.848;2023-02-13T06:29:54;9.40;;;8.48;;
40501;SDS011;29631;49.168;9.848;2023-02-13T06:32:20;8.95;;;8.13;;
40501;SDS011;29631;49.168;9.848;2023-02-13T06:34:45;9.23;;;8.32;;
40501;SDS011;29631;49.168;9.848;2023-02-13T06:37:11;11.13;;;8.15;;
40501;SDS011;29631;49.168;9.848;2023-02-13T06:39:37;9.23;;;8.30;;
40501;SDS011;29631;49.168;9.848;2023-02-13T06:42:02;10.00;;;8.43;;
40501;SDS011;29631;49.168;9.848;2023-02-13T06:44:28;10.75;;;7.90;;
40501;SDS011;29631;49.168;9.848;2023-02-13T06:46:54;8.70;;;7.90;;
40501;SDS011;29631;49.168;9.848;2023-02-13T06:49:20;9.27;;;8.38;;
40501;SDS011;29631;49.168;9.848;2023-02-13T06:51:45;8.77;;;7.88;;
40501;SDS011;29631;49.168;9.848;2023-02-13T06:54:11;8.68;;;7.88;;
40501;SDS011;29631;49.168;9.848;2023-02-13T06:56:37;8.82;;;7.93;;
40501;SDS011;29631;49.168;9.848;2023-02-13T06:59:02;8.93;;;7.80;;
40501;SDS011;29631;49.168;9.848;2023-02-13T07:01:28;8.63;;;7.82;;
40501;SDS011;29631;49.168;9.848;2023-02-13T07:03:54;9.35;;;8.43;;
40501;SDS011;29631;49.168;9.848;2023-02-13T07:06:19;10.43;;;8.18;;
40501;SDS011;29631;49.168;9.848;2023-02-13T07:08:46;8.10;;;7.38;;
40501;SDS011;29631;49.168;9.848;2023-02-13T07:11:15;8.65;;;7.85;;
40501;SDS011;29631;49.168;9.848;2023-02-13T07:13:45;8.38;;;7.57;;
40501;SDS011;29631;49.168;9.848;2023-02-13T07:16:10;9.45;;;8.52;;
40501;SDS011;29631;49.168;9.848;2023-02-13T07:18:36;12.45;;;8.13;;
40501;SDS011;29631;49.168;9.848;2023-02-13T07:21:02;9.35;;;8.45;;
40501;SDS011;29631;49.168;9.848;2023-02-13T07:23:28;9.38;;;8.48;;
40501;SDS011;29631;49.168;9.848;2023-02-13T07:25:54;9.18;;;8.27;;
40501;SDS011;29631;49.168;9.848;2023-02-13T07:28:22;9.57;;;8.55;;
40501;SDS011;29631;49.168;9.848;2023-02-13T07:30:48;9.15;;;8.15;;
40501;SDS011;29631;49.168;9.848;2023-02-13T07:33:13;8.95;;;8.02;;
40501;SDS011;29631;49.168;9.848;2023-02-13T07:35:39;9.20;;;8.30;;
40501;SDS011;29631;49.168;9.848;2023-02-13T07:38:11;9.23;;;8.23;;
40501;SDS011;29631;49.168;9.848;2023-02-13T07:40:37;8.82;;;8.02;;
40501;SDS011;29631;49.168;9.848;2023-02-13T07:43:02;8.45;;;7.65;;
40501;SDS011;29631;49.168;9.848;2023-02-13T07:45:29;9.02;;;8.13;;
40501;SDS011;29631;49.168;9.848;2023-02-13T07:47:55;8.73;;;7.82;;
40501;SDS011;29631;49.168;9.848;2023-02-13T07:50:21;8.00;;;7.20;;
40501;SDS011;29631;49.168;9.848;2023-02-13T07:52:57;8.75;;;7.85;;
40501;SDS011;29631;49.168;9.848;2023-02-13T07:55:25;8.60;;;7.80;;
40501;SDS011;29631;49.168;9.848;2023-02-13T07:57:52;8.60;;;7.70;;
40501;SDS011;29631;49.168;9.848;2023-02-13T08:00:19;9.02;;;8.23;;
40501;SDS011;29631;49.168;9.848;2023-02-13T08:02:46;9.00;;;8.13;;
40501;SDS011;29631;49.168;9.848;2023-02-13T08:05:12;9.65;;;8.32;;
40501;SDS011;29631;49.168;9.848;2023-02-13T08:07:37;8.13;;;7.43;;
40501;SDS011;29631;49.168;9.848;2023-02-13T08:10:05;8.70;;;7.90;;
40501;SDS011;29631;49.168;9.848;2023-02-13T08:12:52;10.70;;;7.85;;
40501;SDS011;29631;49.168;9.848;2023-02-13T08:15:18;8.43;;;7.47;;
40501;SDS011;29631;49.168;9.848;2023-02-13T08:17:44;8.15;;;7.40;;
40501;SDS011;29631;49.168;9.848;2023-02-13T08:20:10;8.70;;;7.82;;
40501;SDS011;29631;49.168;9.848;2023-02-13T08:22:36;8.77;;;7.97;;
40501;SDS011;29631;49.168;9.848;2023-02-13T08:25:03;8.73;;;7.93;;
40501;SDS011;29631;49.168;9.848;2023-02-13T08:27:30;8.70;;;7.90;;
40501;SDS011;29631;49.168;9.848;2023-02-13T08:29:57;8.02;;;7.25;;
40501;SDS011;29631;49.168;9.848;2023-02-13T08:32:23;8.90;;;8.07;;
40501;SDS011;29631;49.168;9.848;2023-02-13T08:34:49;9.55;;;8.57;;
40501;SDS011;29631;49.168;9.848;2023-02-13T08:37:16;8.65;;;7.85;;
40501;SDS011;29631;49.168;9.848;2023-02-13T08:39:42;8.05;;;7.32;;
40501;SDS011;29631;49.168;9.848;2023-02-13T08:42:08;8.65;;;7.72;;
40501;SDS011;29631;49.168;9.848;2023-02-13T08:44:34;8.35;;;7.60;;
40501;SDS011;29631;49.168;9.848;2023-02-13T08:47:01;8.68;;;7.88;;
40501;SDS011;29631;49.168;9.848;2023-02-13T08:49:28;8.43;;;7.63;;
40501;SDS011;29631;49.168;9.848;2023-02-13T08:51:54;8.68;;;7.88;;
40501;SDS011;29631;49.168;9.848;2023-02-13T08:54:20;8.63;;;7.93;;
40501;SDS011;29631;49.168;9.848;2023-02-13T08:56:46;8.05;;;7.35;;
40501;SDS011;29631;49.168;9.848;2023-02-13T08:59:11;8.55;;;7.70;;
40501;SDS011;29631;49.168;9.848;2023-02-13T09:01:37;8.43;;;7.63;;
40501;SDS011;29631;49.168;9.848;2023-02-13T09:06:31;8.10;;;7.28;;
40501;SDS011;29631;49.168;9.848;2023-02-13T09:08:56;8.05;;;7.32;;
40501;SDS011;29631;49.168;9.848;2023-02-13T09:11:22;7.72;;;7.03;;
40501;SDS011;29631;49.168;9.848;2023-02-13T09:13:48;7.90;;;7.13;;
40501;SDS011;29631;49.168;9.848;2023-02-13T09:16:17;8.30;;;7.55;;
40501;SDS011;29631;49.168;9.848;2023-02-13T09:18:45;8.60;;;7.85;;
40501;SDS011;29631;49.168;9.848;2023-02-13T09:21:12;8.00;;;7.30;;
40501;SDS011;29631;49.168;9.848;2023-02-13T09:23:39;8.65;;;7.85;;
40501;SDS011;29631;49.168;9.848;2023-02-13T09:26:09;8.43;;;7.72;;
40501;SDS011;29631;49.168;9.848;2023-02-13T09:28:38;9.20;;;8.40;;
40501;SDS011;29631;49.168;9.848;2023-02-13T09:31:05;8.60;;;7.80;;
40501;SDS011;29631;49.168;9.848;2023-02-13T09:33:35;8.02;;;7.32;;
40501;SDS011;29631;49.168;9.848;2023-02-13T09:36:05;8.50;;;7.70;;
40501;SDS011;29631;49.168;9.848;2023-02-13T09:38:38;8.38;;;7.63;;
40501;SDS011;29631;49.168;9.848;2023-02-13T09:41:10;8.25;;;7.55;;
40501;SDS011;29631;49.168;9.848;2023-02-13T09:43:56;7.18;;;6.57;;
40501;SDS011;29631;49.168;9.848;2023-02-13T09:46:33;8.18;;;7.47;;
40501;SDS011;29631;49.168;9.848;2023-02-13T09:49:12;8.02;;;7.22;;
40501;SDS011;29631;49.168;9.848;2023-02-13T09:51:43;7.80;;;7.10;;
40501;SDS011;29631;49.168;9.848;2023-02-13T09:54:14;7.78;;;7.18;;
40501;SDS011;29631;49.168;9.848;2023-02-13T09:56:50;7.82;;;7.13;;
40501;SDS011;29631;49.168;9.848;2023-02-13T09:59:52;7.28;;;6.72;;
40501;SDS011;29631;49.168;9.848;2023-02-13T10:08:27;7.25;;;6.70;;
40501;SDS011;29631;49.168;9.848;2023-02-13T10:17:43;6.97;;;6.45;;
40501;SDS011;29631;49.168;9.848;2023-02-13T10:26:17;6.90;;;6.30;;
40501;SDS011;29631;49.168;9.848;2023-02-13T10:28:57;5.93;;;5.53;;
40501;SDS011;29631;49.168;9.848;2023-02-13T10:31:49;6.53;;;6.03;;
40501;SDS011;29631;49.168;9.848;2023-02-13T10:34:19;5.97;;;5.57;;
40501;SDS011;29631;49.168;9.848;2023-02-13T10:36:51;6.80;;;6.30;;
40501;SDS011;29631;49.168;9.848;2023-02-13T10:39:20;6.15;;;5.72;;
40501;SDS011;29631;49.168;9.848;2023-02-13T10:56:58;5.35;;;5.05;;
40501;SDS011;29631;49.168;9.848;2023-02-13T10:59:56;4.97;;;4.68;;
40501;SDS011;29631;49.168;9.848;2023-02-13T11:02:29;6.35;;;5.85;;
40501;SDS011;29631;49.168;9.848;2023-02-13T11:05:18;5.55;;;5.05;;
40501;SDS011;29631;49.168;9.848;2023-02-13T11:07:50;5.75;;;5.35;;
40501;SDS011;29631;49.168;9.848;2023-02-13T11:10:20;5.57;;;5.18;;
40501;SDS011;29631;49.168;9.848;2023-02-13T11:12:49;5.68;;;5.28;;
40501;SDS011;29631;49.168;9.848;2023-02-13T11:15:28;5.97;;;5.57;;
40501;SDS011;29631;49.168;9.848;2023-02-13T11:17:57;5.72;;;5.13;;
40501;SDS011;29631;49.168;9.848;2023-02-13T11:22:56;5.57;;;5.18;;
40501;SDS011;29631;49.168;9.848;2023-02-13T11:25:41;5.28;;;4.93;;
40501;SDS011;29631;49.168;9.848;2023-02-13T11:28:26;5.85;;;5.40;;
40501;SDS011;29631;49.168;9.848;2023-02-13T11:31:10;5.78;;;5.38;;
40501;SDS011;29631;49.168;9.848;2023-02-13T11:33:46;4.95;;;4.55;;
40501;SDS011;29631;49.168;9.848;2023-02-13T11:36:33;5.40;;;5.00;;
40501;SDS011;29631;49.168;9.848;2023-02-13T11:41:29;5.38;;;4.97;;
40501;SDS011;29631;49.168;9.848;2023-02-13T11:44:03;5.03;;;4.63;;
40501;SDS011;29631;49.168;9.848;2023-02-13T11:46:50;5.30;;;4.90;;
40501;SDS011;29631;49.168;9.848;2023-02-13T11:49:21;5.20;;;4.80;;
40501;SDS011;29631;49.168;9.848;2023-02-13T11:51:50;5.15;;;4.85;;
40501;SDS011;29631;49.168;9.848;2023-02-13T11:54:23;5.40;;;5.00;;
40501;SDS011;29631;49.168;9.848;2023-02-13T11:56:57;4.53;;;4.22;;
40501;SDS011;29631;49.168;9.848;2023-02-13T11:59:29;5.50;;;5.10;;
40501;SDS011;29631;49.168;9.848;2023-02-13T12:02:11;5.60;;;5.20;;
40501;SDS011;29631;49.168;9.848;2023-02-13T12:04:50;5.25;;;4.85;;
40501;SDS011;29631;49.168;9.848;2023-02-13T12:07:22;5.25;;;4.90;;
40501;SDS011;29631;49.168;9.848;2023-02-13T12:10:37;5.30;;;4.90;;
40501;SDS011;29631;49.168;9.848;2023-02-13T12:12:46;5.15;;;4.80;;
40501;SDS011;29631;49.168;9.848;2023-02-13T12:15:26;4.68;;;4.38;;
40501;SDS011;29631;49.168;9.848;2023-02-13T12:29:29;4.93;;;4.63;;
40501;SDS011;29631;49.168;9.848;2023-02-13T12:31:50;4.47;;;4.18;;
40501;SDS011;29631;49.168;9.848;2023-02-13T12:37:41;4.38;;;4.07;;
40501;SDS011;29631;49.168;9.848;2023-02-13T12:40:18;5.38;;;4.97;;
40501;SDS011;29631;49.168;9.848;2023-02-13T12:51:19;5.95;;;5.45;;
40501;SDS011;29631;49.168;9.848;2023-02-13T12:57:29;5.82;;;5.28;;
40501;SDS011;29631;49.168;9.848;2023-02-13T13:22:56;6.28;;;5.88;;
40501;SDS011;29631;49.168;9.848;2023-02-13T13:28:14;6.45;;;5.97;;
40501;SDS011;29631;49.168;9.848;2023-02-13T13:30:48;6.78;;;6.28;;
40501;SDS011;29631;49.168;9.848;2023-02-13T13:33:16;7.35;;;6.50;;
40501;SDS011;29631;49.168;9.848;2023-02-13T13:38:33;6.60;;;6.07;;
40501;SDS011;29631;49.168;9.848;2023-02-13T13:41:18;7.28;;;6.72;;
40501;SDS011;29631;49.168;9.848;2023-02-13T13:53:08;6.70;;;6.20;;
40501;SDS011;29631;49.168;9.848;2023-02-13T13:58:23;7.47;;;6.90;;
40501;SDS011;29631;49.168;9.848;2023-02-13T14:03:48;6.18;;;5.68;;
40501;SDS011;29631;49.168;9.848;2023-02-13T14:06:20;6.47;;;6.03;;
40501;SDS011;29631;49.168;9.848;2023-02-13T14:17:00;6.32;;;5.72;;
40501;SDS011;29631;49.168;9.848;2023-02-13T14:19:31;6.57;;;6.07;;
40501;SDS011;29631;49.168;9.848;2023-02-13T14:25:02;6.47;;;5.97;;
40501;SDS011;29631;49.168;9.848;2023-02-13T14:27:32;5.35;;;5.05;;
40501;SDS011;29631;49.168;9.848;2023-02-13T14:30:01;5.72;;;5.32;;
40501;SDS011;29631;49.168;9.848;2023-02-13T14:32:32;5.93;;;5.53;;
40501;SDS011;29631;49.168;9.848;2023-02-13T14:35:02;6.88;;;6.38;;
40501;SDS011;29631;49.168;9.848;2023-02-13T14:37:51;6.60;;;6.18;;
40501;SDS011;29631;49.168;9.848;2023-02-13T14:46:15;6.03;;;5.63;;
40501;SDS011;29631;49.168;9.848;2023-02-13T14:49:33;6.15;;;5.65;;
40501;SDS011;29631;49.168;9.848;2023-02-13T14:51:58;6.35;;;5.85;;
40501;SDS011;29631;49.168;9.848;2023-02-13T14:54:33;6.68;;;6.07;;
40501;SDS011;29631;49.168;9.848;2023-02-13T14:57:45;6.45;;;5.95;;
40501;SDS011;29631;49.168;9.848;2023-02-13T15:00:09;6.30;;;5.80;;
40501;SDS011;29631;49.168;9.848;2023-02-13T15:02:59;6.00;;;5.60;;
40501;SDS011;29631;49.168;9.848;2023-02-13T15:05:48;6.25;;;5.75;;
40501;SDS011;29631;49.168;9.848;2023-02-13T15:08:19;6.50;;;5.90;;
40501;SDS011;29631;49.168;9.848;2023-02-13T15:10:51;6.43;;;5.93;;
40501;SDS011;29631;49.168;9.848;2023-02-13T15:13:24;6.65;;;6.15;;
40501;SDS011;29631;49.168;9.848;2023-02-13T15:18:35;7.07;;;6.47;;
40501;SDS011;29631;49.168;9.848;2023-02-13T15:21:08;6.85;;;6.35;;
40501;SDS011;29631;49.168;9.848;2023-02-13T15:23:45;6.75;;;6.22;;
40501;SDS011;29631;49.168;9.848;2023-02-13T15:26:22;6.10;;;5.60;;
40501;SDS011;29631;49.168;9.848;2023-02-13T15:28:58;6.32;;;5.93;;
40501;SDS011;29631;49.168;9.848;2023-02-13T15:31:38;6.50;;;6.00;;
40501;SDS011;29631;49.168;9.848;2023-02-13T15:34:17;6.65;;;6.15;;
40501;SDS011;29631;49.168;9.848;2023-02-13T15:36:59;6.22;;;5.72;;
40501;SDS011;29631;49.168;9.848;2023-02-13T15:39:26;6.78;;;6.28;;
40501;SDS011;29631;49.168;9.848;2023-02-13T15:41:56;6.38;;;5.90;;
40501;SDS011;29631;49.168;9.848;2023-02-13T15:44:30;6.95;;;6.35;;
40501;SDS011;29631;49.168;9.848;2023-02-13T15:47:01;6.68;;;6.18;;
40501;SDS011;29631;49.168;9.848;2023-02-13T15:49:42;7.25;;;6.68;;
40501;SDS011;29631;49.168;9.848;2023-02-13T15:52:19;8.32;;;6.82;;
40501;SDS011;29631;49.168;9.848;2023-02-13T15:54:56;7.78;;;7.10;;
40501;SDS011;29631;49.168;9.848;2023-02-13T15:57:22;8.63;;;7.82;;
40501;SDS011;29631;49.168;9.848;2023-02-13T15:59:49;8.35;;;7.55;;
40501;SDS011;29631;49.168;9.848;2023-02-13T16:02:20;8.07;;;7.28;;
40501;SDS011;29631;49.168;9.848;2023-02-13T16:05:10;8.38;;;7.68;;
40501;SDS011;29631;49.168;9.848;2023-02-13T16:07:52;9.07;;;8.27;;
40501;SDS011;29631;49.168;9.848;2023-02-13T16:10:29;7.75;;;7.15;;
40501;SDS011;29631;49.168;9.848;2023-02-13T16:13:01;8.00;;;7.30;;
40501;SDS011;29631;49.168;9.848;2023-02-13T16:15:31;8.15;;;7.55;;
40501;SDS011;29631;49.168;9.848;2023-02-13T16:18:00;8.30;;;7.60;;
40501;SDS011;29631;49.168;9.848;2023-02-13T16:20:31;8.13;;;7.43;;
40501;SDS011;29631;49.168;9.848;2023-02-13T16:23:12;8.50;;;7.70;;
40501;SDS011;29631;49.168;9.848;2023-02-13T16:25:44;8.52;;;7.82;;
40501;SDS011;29631;49.168;9.848;2023-02-13T16:30:44;8.50;;;7.72;;
40501;SDS011;29631;49.168;9.848;2023-02-13T16:33:27;8.65;;;7.80;;
40501;SDS011;29631;49.168;9.848;2023-02-13T16:38:43;9.23;;;8.32;;
40501;SDS011;29631;49.168;9.848;2023-02-13T16:46:38;8.68;;;7.97;;
40501;SDS011;29631;49.168;9.848;2023-02-13T16:59:47;8.80;;;8.00;;
40501;SDS011;29631;49.168;9.848;2023-02-13T17:02:23;9.35;;;8.45;;
40501;SDS011;29631;49.168;9.848;2023-02-13T17:07:36;9.50;;;8.60;;
40501;SDS011;29631;49.168;9.848;2023-02-13T17:10:07;9.60;;;8.70;;
40501;SDS011;29631;49.168;9.848;2023-02-13T17:13:21;9.48;;;8.68;;
40501;SDS011;29631;49.168;9.848;2023-02-13T17:15:47;9.68;;;8.80;;
40501;SDS011;29631;49.168;9.848;2023-02-13T17:18:13;9.63;;;8.73;;
40501;SDS011;29631;49.168;9.848;2023-02-13T17:20:40;10.35;;;9.35;;
40501;SDS011;29631;49.168;9.848;2023-02-13T17:23:12;10.43;;;9.52;;
40501;SDS011;29631;49.168;9.848;2023-02-13T17:25:47;9.85;;;8.95;;
40501;SDS011;29631;49.168;9.848;2023-02-13T17:28:15;10.30;;;9.38;;
40501;SDS011;29631;49.168;9.848;2023-02-13T17:30:54;10.07;;;9.18;;
40501;SDS011;29631;49.168;9.848;2023-02-13T17:33:24;9.48;;;8.55;;
40501;SDS011;29631;49.168;9.848;2023-02-13T17:35:55;10.02;;;9.13;;
40501;SDS011;29631;49.168;9.848;2023-02-13T17:38:21;10.45;;;9.43;;
40501;SDS011;29631;49.168;9.848;2023-02-13T17:40:47;10.45;;;9.45;;
40501;SDS011;29631;49.168;9.848;2023-02-13T17:43:14;10.52;;;9.55;;
40501;SDS011;29631;49.168;9.848;2023-02-13T17:45:42;10.30;;;9.20;;
40501;SDS011;29631;49.168;9.848;2023-02-13T17:48:09;11.90;;;10.75;;
40501;SDS011;29631;49.168;9.848;2023-02-13T17:50:35;11.95;;;10.75;;
40501;SDS011;29631;49.168;9.848;2023-02-13T17:53:06;10.85;;;9.85;;
40501;SDS011;29631;49.168;9.848;2023-02-13T17:55:42;11.20;;;10.10;;
40501;SDS011;29631;49.168;9.848;2023-02-13T17:58:08;11.68;;;10.57;;
40501;SDS011;29631;49.168;9.848;2023-02-13T18:00:33;11.05;;;10.05;;
40501;SDS011;29631;49.168;9.848;2023-02-13T18:02:59;10.25;;;9.27;;
40501;SDS011;29631;49.168;9.848;2023-02-13T18:05:26;11.35;;;10.27;;
40501;SDS011;29631;49.168;9.848;2023-02-13T18:07:52;11.32;;;10.20;;
40501;SDS011;29631;49.168;9.848;2023-02-13T18:10:22;10.63;;;9.63;;
40501;SDS011;29631;49.168;9.848;2023-02-13T18:12:52;11.30;;;10.20;;
40501;SDS011;29631;49.168;9.848;2023-02-13T18:15:20;11.82;;;10.63;;
40501;SDS011;29631;49.168;9.848;2023-02-13T18:17:46;11.68;;;10.57;;
40501;SDS011;29631;49.168;9.848;2023-02-13T18:20:14;11.15;;;10.15;;
40501;SDS011;29631;49.168;9.848;2023-02-13T18:22:44;12.07;;;10.88;;
40501;SDS011;29631;49.168;9.848;2023-02-13T18:25:11;13.43;;;10.77;;